Weather observations for the past three days for
Ardmore, Ardmore Municipal Airport
Metric (Imperial)
Date Time (cdt) Wind (kph) Vis. (km) Weather Sky Cond. Temperature (ºC) Relative Humidity Wind Chill (°C) Heat Index (°C) Pressure Precipitation (cm)
Air Dwpt 6 hour altimeter (cm) sea level (mb) 1 hr 3 hr 6 hr
Max. Min.
05 19:50 N 19 16.09 Overcast OVC017 14 11 82% 75.64 0.0
05 18:50 N 20 G 31 16.09 Overcast OVC016 15 12 82% 75.57 0.0
05 17:50 N 22 G 31 16.09 Mostly Cloudy BKN019 17 13 77% 75.54 0.0
05 16:50 N 20 G 31 16.09 Fair CLR 20 15 73% 75.44 0.0
05 15:50 NW 28 16.09 Fair CLR 21 15 69% 75.41 0.0
05 14:50 W 15 G 26 16.09 Fair CLR 28 10 32% 27 75.34 0.0
05 13:50 W 22 16.09 Fair CLR 29 16 45% 29 75.26 0.0
05 12:50 W 19 G 31 16.09 Fair CLR 28 16 48% 28 75.23 0.0
05 11:50 SW 17 G 26 16.09 Fair CLR 27 19 62% 28 75.26 0.0
05 10:50 Calm 16.09 Fair CLR 22 19 83% 75.23 0.0
05 08:50 S 15 16.09 Fair CLR 22 19 83% 75.18 0.0
05 07:50 S 19 16.09 Fair CLR 21 19 88% 75.16 0.0
05 07:15 S 17 16.09 Fair CLR 21 18 83% 75.16 0.0
05 06:55 S 17 16.09 Fair CLR 21 18 83% 75.13 0.0
05 06:50 S 17 16.09 Fair CLR 21 18 83% 75.13 0.0
05 06:35 S 13 16.09 Fair CLR 21 18 83% 75.13 0.0
05 06:15 S 17 16.09 Fair CLR 21 18 83% 75.11 0.0
05 05:55 S 19 16.09 Fair CLR 21 18 83% 75.13 0.0
05 05:35 S 17 16.09 Fair CLR 21 18 83% 75.13 0.0
05 04:55 S 13 16.09 Fair CLR 22 18 78% 75.13 0.0
05 04:35 S 9 16.09 Fair CLR 22 18 78% 75.13 0.0
05 04:15 S 7 G 22 16.09 Fair CLR 22 18 78% 75.13 0.0
05 03:55 S 13 16.09 Fair CLR 22 18 78% 75.13 0.0
05 03:35 S 17 16.09 Fair CLR 22 18 78% 75.13 0.0
05 03:15 S 17 16.09 Fair CLR 22 18 78% 75.13 0.0
05 02:55 S 19 16.09 Fair CLR 22 18 78% 75.16 0.0
05 02:35 S 19 16.09 Fair CLR 23 18 74% 75.18 0.0
05 02:15 S 17 16.09 Fair CLR 23 18 74% 75.21 0.0
05 01:55 S 19 16.09 Fair CLR 22 18 78% 75.21 0.0
05 01:35 S 13 G 24 16.09 Fair CLR 22 18 78% 75.23 0.0
05 01:15 S 15 16.09 Fair CLR 22 18 78% 75.26 0.0
05 00:55 S 19 16.09 Fair CLR 23 18 74% 75.26 0.0
05 00:35 S 20 16.09 Fair CLR 23 18 74% 75.26 0.0
05 00:15 S 17 16.09 Fair CLR 22 18 78% 75.29 0.0
04 23:55 S 15 16.09 Fair CLR 22 17 73% 75.31 0.0
04 23:35 S 19 G 30 16.09 Fair CLR 22 17 73% 75.31 0.0
04 23:15 S 15 G 24 16.09 Fair CLR 22 17 73% 75.31 0.0
04 23:00 S 19 16.09 Fair CLR 22 17 73% 75.31 0.0
04 21:50 S 17 G 26 16.09 Fair CLR 23 17 69% 75.31 0.0
04 20:50 S 19 16.09 Fair CLR 23 17 69% 75.31 0.0
04 19:50 S 22 G 31 16.09 Fair CLR 24 17 65% 25 75.29 0.0
04 18:50 S 28 G 39 16.09 Fair CLR 26 17 58% 27 75.29 0.0
04 17:50 S 31 G 43 16.09 Fair CLR 27 16 51% 27 75.34 0.0
04 15:50 S 35 16.09 Fair and Breezy CLR 28 16 48% 28 75.46 0.0
04 14:50 S 30 G 44 16.09 Fair CLR 28 15 45% 28 75.51 0.0
04 13:50 S 39 16.09 Fair and Breezy CLR 26 15 51% 27 75.59 0.0
04 12:50 S 28 G 41 16.09 Fair CLR 25 15 54% 26 75.67 0.0
04 11:50 S 33 16.09 Fair and Breezy CLR 25 14 51% 26 75.77 0.0
04 10:50 S 31 G 48 16.09 Fair CLR 23 14 57% 75.79 0.0
04 09:50 S 30 G 43 16.09 Fair CLR 21 14 64% 75.82 0.0
04 08:50 S 24 G 33 16.09 Fair CLR 20 13 64% 75.84 0.0
04 07:50 S 20 16.09 Fair CLR 18 12 68% 75.84 0.0
04 07:10 S 19 16.09 A Few Clouds FEW110 16 11 72% 75.84 0.0
04 06:55 S 19 16.09 Partly Cloudy SCT110 16 11 72% 75.82 0.0
04 06:50 S 19 16.09 Fair CLR 16 11 72% 75.82 0.0
04 06:35 S 19 G 28 16.09 Fair CLR 16 10 68% 75.82 0.0
04 06:15 SW 15 G 24 16.09 Fair CLR 16 10 68% 75.84 0.0
04 05:55 S 20 G 30 16.09 Fair CLR 16 10 68% 75.84 0.0
04 05:35 SW 15 16.09 Fair CLR 16 10 68% 75.87 0.0
04 05:15 S 17 16.09 Fair CLR 16 10 68% 75.87 0.0
04 04:55 S 15 16.09 Fair CLR 16 10 68% 75.87 0.0
04 04:35 S 9 16.09 Fair CLR 15 10 72% 75.87 0.0
04 04:15 S 9 16.09 Fair CLR 15 10 72% 75.87 0.0
04 03:55 S 7 16.09 Fair CLR 15 9 68% 75.9 0.0
04 03:35 Calm 16.09 Fair CLR 14 9 72% 75.92 0.0
04 03:15 Calm 16.09 Fair CLR 14 9 72% 75.92 0.0
04 02:55 Calm 16.09 Fair CLR 14 9 72% 75.92 0.0
04 02:35 Calm 16.09 Fair CLR 15 9 68% 75.95 0.0
04 02:15 Calm 16.09 Fair CLR 16 9 63% 75.97 0.0
04 01:55 Calm 16.09 Fair CLR 16 9 63% 76 0.0
04 01:35 Calm 16.09 Fair CLR 16 9 63% 76.02 0.0
04 01:15 Calm 16.09 Fair CLR 16 8 59% 76.02 0.0
04 00:55 Calm 16.09 Fair CLR 17 9 60% 76.05 0.0
04 00:35 S 6 16.09 Fair CLR 17 9 60% 76.05 0.0
04 00:15 S 11 16.09 Fair CLR 17 9 60% 76.05 0.0
03 23:55 Calm 16.09 Fair CLR 18 9 56% 76.05 0.0
03 23:35 S 15 16.09 Fair CLR 18 9 56% 76.05 0.0
03 23:15 S 19 16.09 Fair CLR 18 9 56% 76.07 0.0
03 22:55 S 19 16.09 Fair CLR 18 9 56% 76.07 0.0
03 22:35 S 11 16.09 Fair CLR 17 9 60% 76.07 0.0
03 22:15 Calm 16.09 Fair CLR 17 9 60% 76.07 0.0
03 21:55 Calm 16.09 Fair CLR 17 9 60% 76.07 0.0
03 21:35 Calm 11.27 Fair CLR 18 8 52% 76.05 0.0
03 21:15 S 11 16.09 Fair CLR 18 8 52% 76.05 0.0
03 20:55 S 11 16.09 Fair CLR 18 8 52% 76.05 0.0
03 20:35 S 13 16.09 Fair CLR 19 8 49% 76.05 0.0
03 20:15 S 15 16.09 Fair CLR 21 8 43% 76.02 0.0
03 19:55 S 11 16.09 Fair CLR 22 8 41% 76.02 0.0
03 19:35 S 15 16.09 Fair CLR 24 7 34% 25 76.02 0.0
03 19:15 S 15 G 26 16.09 Fair CLR 25 8 34% 26 76.05 0.0
03 18:55 S 19 16.09 Fair CLR 26 7 30% 26 76.05 0.0
03 18:35 S 22 G 33 16.09 Fair CLR 26 7 30% 26 76.05 0.0
03 18:15 S 24 16.09 Fair CLR 27 7 28% 26 76.07 0.0
03 17:35 S 24 16.09 A Few Clouds FEW090 27 8 30% 26 76.07 0.0
03 17:15 SW 19 G 31 16.09 Fair CLR 28 7 26% 27 76.07 0.0
03 16:55 SW 22 16.09 Fair CLR 28 8 28% 27 76.1 0.0
03 15:50 SW 17 G 30 16.09 A Few Clouds FEW080 28 9 30% 27 76.23 0.0
03 14:50 SW 17 G 30 16.09 A Few Clouds FEW080 28 9 30% 27 76.23 0.0
03 13:50 SW 20 16.09 Fair CLR 27 10 34% 27 76.3 0.0
03 12:50 SW 19 G 28 16.09 Fair CLR 27 12 39% 27 76.38 0.0
03 11:50 SW 22 G 37 16.09 Fair CLR 25 11 42% 26 76.45 0.0
03 10:50 SW 22 G 33 16.09 Fair CLR 23 11 47% 76.45 0.0
03 09:50 SW 15 16.09 Fair CLR 20 12 60% 76.48 0.0
03 08:50 SW 15 16.09 Fair CLR 20 12 60% 76.48 0.0
03 06:50 Calm 16.09 Fair CLR 9 9 100% 76.45 0.0
03 06:35 Calm 14.48 Fair CLR 9 9 100% 76.43 0.0
03 06:15 Calm 3.22 Fog/Mist CLR 8 8 100% 76.43 0.0
03 05:55 Calm 12.87 Fair CLR 9 9 100% 76.43 0.0
03 05:35 Calm 16.09 Fair CLR 9 9 100% 76.43 0.0
03 05:15 Calm 16.09 Fair CLR 9 9 100% 76.43 0.0
03 04:55 Calm 16.09 Fair CLR 8 8 100% 76.43 0.0
03 04:35 Calm 16.09 Fair CLR 9 9 100% 76.43 0.0
03 04:15 Calm 16.09 Fair CLR 9 9 100% 76.45 0.0
03 03:55 Calm 16.09 Fair CLR 9 9 100% 76.45 0.0
03 03:35 Calm 16.09 Fair CLR 10 10 100% 76.45 0.0
03 03:15 Calm 16.09 Fair CLR 10 9 94% 76.45 0.0
03 02:55 Calm 16.09 Fair CLR 10 10 100% 76.45 0.0
03 02:35 Calm 16.09 Fair CLR 10 10 100% 76.48 0.0
03 02:15 Calm 16.09 Fair CLR 10 10 100% 76.48 0.0
03 01:55 Calm 16.09 Fair CLR 10 10 100% 76.48 0.0
03 01:35 Calm 16.09 Fair CLR 10 9 94% 76.48 0.0
03 01:15 Calm 16.09 Fair CLR 11 10 94% 76.48 0.0
03 00:55 Calm 16.09 Fair CLR 11 10 94% 76.48 0.0
03 00:35 Calm 16.09 Fair CLR 11 11 100% 76.48 0.0
03 00:15 Calm 16.09 Fair CLR 11 10 94% 76.45 0.0
02 23:55 Calm 16.09 Fair CLR 11 10 94% 76.45 0.0
02 23:35 Calm 16.09 Fair CLR 12 11 94% 76.45 0.0
02 23:15 Calm 16.09 Fair CLR 12 12 100% 76.45 0.0
02 22:55 Calm 16.09 Fair CLR 12 11 94% 76.45 0.0
02 22:35 Calm 16.09 Fair CLR 12 11 94% 76.45 0.0
02 22:15 Calm 16.09 Fair CLR 13 11 88% 76.43 0.0
02 21:55 Calm 16.09 Fair CLR 14 12 88% 76.4 0.0
02 21:35 Calm 16.09 Fair CLR 13 12 94% 76.4 0.0
02 21:15 Calm 16.09 Fair CLR 15 11 77% 76.38 0.0
02 20:55 Calm 16.09 Fair CLR 17 11 68% 76.38 0.0
Date Time (cdt) Wind (kph) Vis. (km) Weather Sky Cond. Air Dwpt Max. Min. Relative Humidity Wind Chill (°C) Heat Index (°C) altimeter (cm) sea level (mb) 1 hr 3 hr 6 hr
6 hour
Temperature (ºC) Pressure Precipitation (cm)